Time,TemperatureF,DewpointF,PressureIn,WindDirection,WindDirectionDegrees,WindSpeedMPH,WindSpeedGustMPH,Humidity,HourlyPrecipIn,Conditions,Clouds,dailyrainin,SoftwareType,DateUTC
2013-08-20 00:01:00,80.0,42.0,-100.00,SSE,155,9.0,11.0,25,0.00,,,0.00,,2013-08-20 06:01:00,
2013-08-20 00:21:00,76.0,45.0,-100.00,WSW,254,11.0,13.0,33,0.00,,,0.00,,2013-08-20 06:21:00,
2013-08-20 00:31:00,76.0,45.0,-100.00,WSW,254,11.0,13.0,33,0.00,,,0.00,,2013-08-20 06:31:00,
2013-08-20 00:52:00,76.0,40.0,-100.00,WSW,241,10.0,14.0,28,0.00,,,0.00,,2013-08-20 06:52:00,
2013-08-20 01:01:00,76.0,40.0,-100.00,WSW,241,10.0,14.0,28,0.00,,,0.00,,2013-08-20 07:01:00,
2013-08-20 01:22:00,73.0,40.0,-100.00,SSW,206,4.0,6.0,30,0.00,,,0.00,,2013-08-20 07:22:00,
2013-08-20 01:31:00,73.0,40.0,-100.00,SSW,206,4.0,6.0,30,0.00,,,0.00,,2013-08-20 07:31:00,
2013-08-20 02:21:00,69.0,47.0,-100.00,South,174,5.0,8.0,46,0.00,,,0.00,,2013-08-20 08:21:00,
2013-08-20 02:31:00,69.0,47.0,-100.00,South,174,5.0,8.0,46,0.00,,,0.00,,2013-08-20 08:31:00,
2013-08-20 03:21:00,68.0,48.0,-100.00,SSE,167,4.0,6.0,50,0.00,,,0.00,,2013-08-20 09:21:00,
2013-08-20 03:33:00,68.0,48.0,-100.00,SSE,167,4.0,6.0,50,0.00,,,0.00,,2013-08-20 09:33:00,
2013-08-20 04:22:00,71.0,44.0,-100.00,SW,222,10.0,11.0,38,0.00,,,0.00,,2013-08-20 10:22:00,
2013-08-20 04:32:00,71.0,44.0,-100.00,SW,222,10.0,11.0,38,0.00,,,0.00,,2013-08-20 10:32:00,
2013-08-20 04:52:00,67.0,46.0,-100.00,SW,222,12.0,14.0,47,0.00,,,0.00,,2013-08-20 10:52:00,
2013-08-20 05:02:00,67.0,46.0,-100.00,SW,222,12.0,14.0,47,0.00,,,0.00,,2013-08-20 11:02:00,
2013-08-20 05:21:00,62.0,47.0,-100.00,SSE,150,3.0,5.0,58,0.00,,,0.00,,2013-08-20 11:21:00,
2013-08-20 05:33:00,62.0,47.0,-100.00,SSE,150,3.0,5.0,58,0.00,,,0.00,,2013-08-20 11:33:00,
2013-08-20 05:52:00,60.0,47.0,-100.00,SE,138,4.0,6.0,61,0.00,,,0.00,,2013-08-20 11:52:00,
2013-08-20 06:01:00,60.0,47.0,-100.00,SE,138,4.0,6.0,61,0.00,,,0.00,,2013-08-20 12:01:00,
2013-08-20 06:21:00,59.0,48.0,-100.00,East,96,0.0,1.0,67,0.00,,,0.00,,2013-08-20 12:21:00,
2013-08-20 06:31:00,59.0,48.0,-100.00,East,96,0.0,1.0,67,0.00,,,0.00,,2013-08-20 12:31:00,
2013-08-20 06:52:00,58.0,47.0,-100.00,North,353,3.0,4.0,68,0.00,,,0.00,,2013-08-20 12:52:00,
2013-08-20 07:00:00,63.0,45.0,-100.00,NNE,31,2.0,2.0,53,0.00,,,0.00,,2013-08-20 13:00:00,
2013-08-20 07:01:00,58.0,47.0,-100.00,North,353,3.0,4.0,68,0.00,,,0.00,,2013-08-20 13:01:00,
2013-08-20 07:21:00,58.0,46.0,-100.00,North,1,5.0,6.0,64,0.00,,,0.00,,2013-08-20 13:21:00,
2013-08-20 07:32:00,58.0,46.0,-100.00,North,1,5.0,6.0,64,0.00,,,0.00,,2013-08-20 13:32:00,
2013-08-20 07:52:00,63.0,45.0,-100.00,NNE,31,2.0,2.0,53,0.00,,,0.00,,2013-08-20 13:52:00,
2013-08-20 08:21:00,63.0,51.0,-100.00,WNW,302,4.0,4.0,66,0.00,,,0.00,,2013-08-20 14:21:00,
2013-08-20 08:32:00,63.0,51.0,-100.00,WNW,302,4.0,4.0,66,0.00,,,0.00,,2013-08-20 14:32:00,
2013-08-20 09:22:00,69.0,49.0,-100.00,South,179,2.0,3.0,48,0.00,,,0.00,,2013-08-20 15:22:00,
2013-08-20 09:34:00,69.0,49.0,-100.00,South,179,2.0,3.0,48,0.00,,,0.00,,2013-08-20 15:34:00,
2013-08-20 09:53:00,73.0,47.0,-100.00,SW,220,1.0,2.0,40,0.00,,,0.00,,2013-08-20 15:53:00,
2013-08-20 10:04:00,73.0,47.0,-100.00,SW,220,1.0,2.0,40,0.00,,,0.00,,2013-08-20 16:04:00,
2013-08-20 10:30:00,-999.0,-99.9,-100.00,SW,230,2.0,3.0,36,0.00,,,0.00,,2013-08-20 16:30:00,
2013-08-20 10:39:00,75.0,47.0,-100.00,SW,230,2.0,3.0,36,0.00,,,0.00,,2013-08-20 16:39:00,
2013-08-20 10:53:00,77.0,42.0,-100.00,WSW,237,2.0,3.0,29,0.00,,,0.00,,2013-08-20 16:53:00,
2013-08-20 11:03:00,77.0,42.0,-100.00,WSW,237,2.0,3.0,29,0.00,,,0.00,,2013-08-20 17:03:00,
2013-08-20 11:24:00,78.0,42.0,-100.00,SSW,202,4.0,5.0,27,0.00,,,0.00,,2013-08-20 17:24:00,
2013-08-20 11:34:00,78.0,42.0,-100.00,SSW,202,4.0,5.0,27,0.00,,,0.00,,2013-08-20 17:34:00,
2013-08-20 11:52:00,80.0,42.0,-100.00,SW,216,5.0,7.0,27,0.00,,,0.00,,2013-08-20 17:52:00,
2013-08-20 12:02:00,80.0,42.0,-100.00,SW,216,5.0,7.0,27,0.00,,,0.00,,2013-08-20 18:02:00,
2013-08-20 12:22:00,82.0,47.0,-100.00,South,171,5.0,8.0,29,0.00,,,0.00,,2013-08-20 18:22:00,
2013-08-20 12:33:00,82.0,47.0,-100.00,South,171,5.0,8.0,29,0.00,,,0.00,,2013-08-20 18:33:00,
2013-08-20 12:52:00,84.0,46.0,-100.00,SW,217,4.0,6.0,26,0.00,,,0.00,,2013-08-20 18:52:00,
2013-08-20 13:01:00,84.0,46.0,-100.00,SW,217,4.0,6.0,26,0.00,,,0.00,,2013-08-20 19:01:00,
2013-08-20 13:21:00,87.0,37.0,-100.00,SSW,200,4.0,5.0,17,0.00,,,0.00,,2013-08-20 19:21:00,
2013-08-20 13:32:00,87.0,37.0,-100.00,SSW,200,4.0,5.0,17,0.00,,,0.00,,2013-08-20 19:32:00,
2013-08-20 13:52:00,88.0,38.0,-100.00,SE,131,7.0,10.0,17,0.00,,,0.00,,2013-08-20 19:52:00,
2013-08-20 14:03:00,88.0,38.0,-100.00,SE,131,7.0,10.0,17,0.00,,,0.00,,2013-08-20 20:03:00,
2013-08-20 14:21:00,88.0,42.0,-100.00,SE,138,9.0,11.0,20,0.00,,,0.00,,2013-08-20 20:21:00,
2013-08-20 14:32:00,88.0,42.0,-100.00,SE,138,9.0,11.0,20,0.00,,,0.00,,2013-08-20 20:32:00,
2013-08-20 14:52:00,89.0,38.0,-100.00,SE,141,6.0,12.0,17,0.00,,,0.00,,2013-08-20 20:52:00,
2013-08-20 15:02:00,89.0,38.0,-100.00,SE,141,6.0,12.0,17,0.00,,,0.00,,2013-08-20 21:02:00,
2013-08-20 15:22:00,88.0,41.0,-100.00,ESE,123,11.0,17.0,19,0.00,,,0.00,,2013-08-20 21:22:00,
2013-08-20 15:34:00,88.0,41.0,-100.00,ESE,123,11.0,17.0,19,0.00,,,0.00,,2013-08-20 21:34:00,
2013-08-20 15:55:00,89.0,39.0,-100.00,SE,134,13.0,17.0,17,0.00,,,0.00,,2013-08-20 21:55:00,
2013-08-20 16:04:00,89.0,39.0,-100.00,SE,134,13.0,17.0,17,0.00,,,0.00,,2013-08-20 22:04:00,
2013-08-20 16:24:00,88.0,45.0,-100.00,SE,133,11.0,15.0,22,0.00,,,0.00,,2013-08-20 22:24:00,
2013-08-20 16:33:00,88.0,45.0,-100.00,SE,133,11.0,15.0,22,0.00,,,0.00,,2013-08-20 22:33:00,
2013-08-20 16:53:00,90.0,43.0,-100.00,South,172,15.0,19.0,19,0.00,,,0.00,,2013-08-20 22:53:00,
2013-08-20 17:03:00,90.0,43.0,-100.00,South,172,15.0,19.0,19,0.00,,,0.00,,2013-08-20 23:03:00,
2013-08-20 17:22:00,87.0,45.0,-100.00,South,188,11.0,17.0,23,0.00,,,0.00,,2013-08-20 23:22:00,
2013-08-20 17:33:00,87.0,45.0,-100.00,South,188,11.0,17.0,23,0.00,,,0.00,,2013-08-20 23:33:00,
2013-08-20 18:22:00,81.0,49.0,-100.00,South,188,12.0,19.0,33,0.00,,,0.00,,2013-08-21 00:22:00,
2013-08-20 18:32:00,81.0,49.0,-100.00,South,188,12.0,19.0,33,0.00,,,0.00,,2013-08-21 00:32:00,
2013-08-20 20:22:00,75.0,52.0,-100.00,SSW,192,7.0,10.0,44,0.00,,,0.00,,2013-08-21 02:22:00,
2013-08-20 20:32:00,75.0,52.0,-100.00,SSW,192,7.0,10.0,44,0.00,,,0.00,,2013-08-21 02:32:00,
2013-08-20 20:52:00,74.0,50.0,-100.00,South,171,11.0,14.0,42,0.00,,,0.00,,2013-08-21 02:52:00,
2013-08-20 21:23:00,73.0,52.0,-100.00,SSW,193,5.0,7.0,48,0.00,,,0.00,,2013-08-21 03:23:00,
2013-08-20 21:35:00,73.0,52.0,-100.00,SSW,193,5.0,7.0,48,0.00,,,0.00,,2013-08-21 03:35:00,
2013-08-20 21:55:00,71.0,52.0,-100.00,SSW,206,6.0,8.0,52,0.00,,,0.00,,2013-08-21 03:55:00,
2013-08-20 22:04:00,71.0,52.0,-100.00,SSW,206,6.0,8.0,52,0.00,,,0.00,,2013-08-21 04:04:00,
2013-08-20 22:54:00,71.0,50.0,-100.00,SW,216,7.0,12.0,47,0.00,,,0.00,,2013-08-21 04:54:00,
2013-08-20 23:02:00,71.0,50.0,-100.00,SW,216,7.0,12.0,47,0.00,,,0.00,,2013-08-21 05:02:00,
2013-08-20 23:22:00,70.0,50.0,-100.00,SW,217,9.0,12.0,49,0.00,,,0.00,,2013-08-21 05:22:00,
2013-08-20 23:33:00,70.0,50.0,-100.00,SW,217,9.0,12.0,49,0.00,,,0.00,,2013-08-21 05:33:00,
2013-08-20 23:52:00,66.0,51.0,-100.00,SSW,192,4.0,6.0,58,0.00,,,0.00,,2013-08-21 05:52:00,